Etusivu
METAR-TAF:

METAR-TAF

Lentoasemat :

Ringkøbing-Skjern, Tanska

Leveyspiiri: 56-00N, Pituuspiiri: 008-21E, korkeus merenpinnasta: 5 m

Tämänhetkinen sää

Tämä raportti tehtiin 3 tuntia ja 14 minuuttia sitten, kello 14.50 UTC
Tuuli 3 kn lännestä/luoteesta
Lämpötila 4°C
Kosteus 100%
Ilmanpaine 1019 hPa
Näkyvyys: 1500 m
Hajonneita pilviä 400 ft:n korkeudessa
utua

METAR: EKVJ 191450Z 29003KT 1500 BR BKN004 04/04 Q1019

Aika: 19:04 (18:04 UTC)

Sääennuste

Tämä raportti tehtiin 6 tuntia ja 11 minuuttia sitten, kello 11.53 UTC
Ennuste voimassa 19. päivästä klo 12 UTC - 19. päivään klo 16 UTC
Tuuli 3 kn eri suunnista
Näkyvyys: 1200 m
Hajonneita pilviä 300 ft:n korkeudessa
utua
Ajoittain
19. päivästä klo 12 UTC - 19. päivään klo 16 UTC
Näkyvyys: 3000 m
Hajonneita pilviä 600 ft:n korkeudessa
heikkoa sadetta, lumisadetta

TAF: EKVJ 191153Z 1912/1916 VRB03KT 1200 BR BKN003 TEMPO 1912/1916 3000 -RASN BKN006

Säähavainnot ja -ennusteet yli 4000 lentoasemalta (METAR- ja TAF-raportit).

Käytössä olevat sääasemat on merkitty karttaan keltaisilla ja punaisilla pisteillä.

Aseta hiiri pisteen päälle nähdäksesi sääaseman nimen.

Klikkaa sitten nähdäksesi säähavainnot ja -ennusteet.

Kartan vaihtaminen: klikkaa mustalla rastilla varustettuja vihreitä pisteitä, niin voit zoomata sisään; viivalla varustettua vihreää pistettä, niin voit zoomata ulos tai vihreitä nuolia, niin pääset viereisille kartoille.


METAR-TAF: